Map

Track Data

SID SEASON NUMBER BASIN SUBBASIN NAME ISO_TIME NATURE LAT LON WMO_WIND WMO_PRES WMO_AGENCY TRACK_TYPE DIST2LAND LANDFALL IFLAG USA_AGENCY USA_ATCF_ID USA_LAT USA_LON USA_RECORD USA_STATUS USA_WIND USA_PRES USA_SSHS USA_R34_NE USA_R34_SE USA_R34_SW USA_R34_NW USA_R50_NE USA_R50_SE USA_R50_SW USA_R50_NW USA_R64_NE USA_R64_SE USA_R64_SW USA_R64_NW USA_POCI USA_ROCI USA_RMW USA_EYE TOKYO_LAT TOKYO_LON TOKYO_GRADE TOKYO_WIND TOKYO_PRES TOKYO_R50_DIR TOKYO_R50_LONG TOKYO_R50_SHORT TOKYO_R30_DIR TOKYO_R30_LONG TOKYO_R30_SHORT TOKYO_LAND CMA_LAT CMA_LON CMA_CAT CMA_WIND CMA_PRES HKO_LAT HKO_LON HKO_CAT HKO_WIND HKO_PRES NEWDELHI_LAT NEWDELHI_LON NEWDELHI_GRADE NEWDELHI_WIND NEWDELHI_PRES NEWDELHI_CI NEWDELHI_DP NEWDELHI_POCI REUNION_LAT REUNION_LON REUNION_TYPE REUNION_WIND REUNION_PRES REUNION_TNUM REUNION_CI REUNION_RMW REUNION_R34_NE REUNION_R34_SE REUNION_R34_SW REUNION_R34_NW REUNION_R50_NE REUNION_R50_SE REUNION_R50_SW REUNION_R50_NW REUNION_R64_NE REUNION_R64_SE REUNION_R64_SW REUNION_R64_NW BOM_LAT BOM_LON BOM_TYPE BOM_WIND BOM_PRES BOM_TNUM BOM_CI BOM_RMW BOM_R34_NE BOM_R34_SE BOM_R34_SW BOM_R34_NW BOM_R50_NE BOM_R50_SE BOM_R50_SW BOM_R50_NW BOM_R64_NE BOM_R64_SE BOM_R64_SW BOM_R64_NW BOM_ROCI BOM_POCI BOM_EYE BOM_POS_METHOD BOM_PRES_METHOD NADI_LAT NADI_LON NADI_CAT NADI_WIND NADI_PRES WELLINGTON_LAT WELLINGTON_LON WELLINGTON_WIND WELLINGTON_PRES DS824_LAT DS824_LON DS824_STAGE DS824_WIND DS824_PRES TD9636_LAT TD9636_LON TD9636_STAGE TD9636_WIND TD9636_PRES TD9635_LAT TD9635_LON TD9635_WIND TD9635_PRES TD9635_ROCI NEUMANN_LAT NEUMANN_LON NEUMANN_CLASS NEUMANN_WIND NEUMANN_PRES MLC_LAT MLC_LON MLC_CLASS MLC_WIND MLC_PRES USA_GUST BOM_GUST BOM_GUST_PER REUNION_GUST REUNION_GUST_PER USA_SEAHGT USA_SEARAD_NE USA_SEARAD_SE USA_SEARAD_SW USA_SEARAD_NW STORM_SPEED STORM_DIR
2002307S07070 2003 87 SI MM ATANG 2002-11-03 06:00:00 TS -6.60000 69.6000 main 1845 1845 O___________O_ jtwc_sh SH022003 -6.60000 69.6000 TD 15 1006 -1 -6.60000 69.6000 TC 15 12 259
2002307S07070 2003 87 SI MM ATANG 2002-11-03 09:00:00 TS -6.71515 69.0001 main 1897 1884 P___________P_ SH022003 -6.71515 69.0001 TD 15 1006 -1 -6.71515 69.0001 TC 15 12 260
2002307S07070 2003 87 SI MM ATANG 2002-11-03 12:00:00 TS -6.80000 68.4000 main 1884 1845 O___________O_ jtwc_sh SH022003 -6.80000 68.4000 TD 15 1006 -1 -6.80000 68.4000 TC 15 12 264
2002307S07070 2003 87 SI MM ATANG 2002-11-03 15:00:00 TS -6.84243 67.7999 main 1845 1798 P___________P_ SH022003 -6.84243 67.7999 TD 17 1005 -1 -6.84243 67.7999 TC 17 12 265
2002307S07070 2003 87 SI MM ATANG 2002-11-03 18:00:00 TS -6.90000 67.2000 main 1798 1752 O___________O_ jtwc_sh SH022003 -6.90000 67.2000 TD 20 1004 -1 1008 120 45 -6.90000 67.2000 TC 20 12 261
2002307S07070 2003 87 SI MM ATANG 2002-11-03 21:00:00 TS -7.03486 66.6150 main 1752 1699 P___________P_ SH022003 -7.03486 66.6150 TD 22 1003 -1 1008 122 45 -7.03486 66.6150 TC 22 12 256
2002307S07070 2003 87 SI MM ATANG 2002-11-04 00:00:00 TS -7.20000 66.0000 main 1699 1640 O___________O_ jtwc_sh SH022003 -7.20000 66.0000 TD 25 1002 -1 1008 125 45 -7.20000 66.0000 TC 25 13 256
2002307S07070 2003 87 SI MM ATANG 2002-11-04 03:00:00 TS -7.36499 65.3075 main 1640 1594 P___________P_ SH022003 -7.36499 65.3075 TD 25 1002 -1 1008 125 45 -7.36499 65.3075 TC 25 14 258
2002307S07070 2003 87 SI MM ATANG 2002-11-04 06:00:00 TS -7.50000 64.6000 main 1594 1555 O___________O_ jtwc_sh SH022003 -7.50000 64.6000 TD 25 1002 -1 1008 125 45 -7.50000 64.6000 TC 25 14 261
2002307S07070 2003 87 SI MM ATANG 2002-11-04 09:00:00 TS -7.57237 63.9425 main 1550 1523 P___________P_ SH022003 -7.57237 63.9425 TD 25 1002 -1 1008 125 45 -7.57237 63.9425 TC 25 13 266
2002307S07070 2003 87 SI MM ATANG 2002-11-04 12:00:00 TS -7.60000 63.3000 main 1523 1495 O___________O_ jtwc_sh SH022003 -7.60000 63.3000 TD 25 1002 -1 1008 125 45 -7.60000 63.3000 TC 25 13 268
2002307S07070 2003 87 SI MM ATANG 2002-11-04 15:00:00 TS -7.60755 62.6125 main 1495 1455 P___________P_ SH022003 -7.60755 62.6125 TD 25 1002 -1 1008 125 45 -7.60755 62.6125 TC 25 13 270
2002307S07070 2003 87 SI MM ATANG 2002-11-04 18:00:00 TS -7.60000 62.0000 main 1455 1416 O___________O_ jtwc_sh SH022003 -7.60000 62.0000 TD 25 1002 -1 1008 125 45 -7.60000 62.0000 TC 25 11 271
2002307S07070 2003 87 SI MM ATANG 2002-11-04 21:00:00 TS -7.58487 61.5475 main 1406 1376 P___________P_ SH022003 -7.58487 61.5475 TD 25 1002 -1 1008 125 45 -7.58487 61.5475 TC 25 8 270
2002307S07070 2003 87 SI MM ATANG 2002-11-05 00:00:00 TS -7.60000 61.2000 main 1376 1342 O___________O_ jtwc_sh SH022003 -7.60000 61.2000 TD 25 1002 -1 1008 125 45 -7.60000 61.2000 TC 25 7 262
2002307S07070 2003 87 SI MM ATANG 2002-11-05 03:00:00 TS -7.67747 60.8700 main 1342 1307 P___________P_ SH022003 -7.67747 60.8700 TD 25 1002 -1 1008 125 45 -7.67747 60.8700 TC 25 6 251
2002307S07070 2003 87 SI MM ATANG 2002-11-05 06:00:00 TS -7.80000 60.6000 main 1307 1282 O___________O_ jtwc_sh SH022003 -7.80000 60.6000 TD 25 1002 -1 1008 125 45 -7.80000 60.6000 TC 25 6 241
2002307S07070 2003 87 SI MM ATANG 2002-11-05 09:00:00 TS -7.94248 60.3775 main 1282 1252 P___________P_ SH022003 -7.94248 60.3775 TD 25 1002 -1 1008 125 45 -7.94248 60.3775 TC 25 5 233
2002307S07070 2003 87 SI MM ATANG 2002-11-05 12:00:00 TS -8.10000 60.2000 main 1252 1228 O___________O_ jtwc_sh SH022003 -8.10000 60.2000 TD 25 1002 -1 1008 125 45 -8.10000 60.2000 TC 25 5 229
2002307S07070 2003 87 SI MM ATANG 2002-11-05 15:00:00 TS -8.24249 60.0350 main 1228 1208 P___________P_ SH022003 -8.24249 60.0350 TD 25 1002 -1 1008 125 45 -8.24249 60.0350 TC 25 4 224
2002307S07070 2003 87 SI MM ATANG 2002-11-05 18:00:00 TS -8.40000 59.9000 main 1208 1188 O___________O_ jtwc_sh SH022003 -8.40000 59.9000 TD 25 1002 -1 1008 125 45 -8.40000 59.9000 TC 25 4 214
2002307S07070 2003 87 SI MM ATANG 2002-11-05 21:00:00 TS -8.59999 59.7925 main 1188 1169 P___________P_ SH022003 -8.59999 59.7925 TD 27 1001 -1 1008 125 45 -8.59999 59.7925 TC 27 4 206
2002307S07070 2003 87 SI MM ATANG 2002-11-06 00:00:00 TS -8.80000 59.7000 main 1169 1154 O___________O_ jtwc_sh SH022003 -8.80000 59.7000 TD 30 1000 -1 1008 125 45 -8.80000 59.7000 TC 30 4 208
2002307S07070 2003 87 SI MM ATANG 2002-11-06 03:00:00 TS -8.95750 59.6000 main 1150 1135 P___________P_ SH022003 -8.95750 59.6000 TD 32 998 -1 1008 125 45 -8.95750 59.6000 TC 32 4 213
2002307S07070 2003 87 SI MM ATANG 2002-11-06 06:00:00 TS -9.10000 59.5000 main 1135 1116 O___________O_ jtwc_sh SH022003 -9.10000 59.5000 TS 35 997 0 1008 125 45 -9.10000 59.5000 TC 35 4 209
2002307S07070 2003 87 SI MM ATANG 2002-11-06 09:00:00 TS -9.28748 59.4150 main 1116 1102 P___________P_ SH022003 -9.28748 59.4150 TS 35 997 0 1008 125 45 -9.28748 59.4150 TC 35 4 213
2002307S07070 2003 87 SI MM ATANG 2002-11-06 12:00:00 TS -9.40000 59.3000 main 1102 1081 O___________O_ jtwc_sh SH022003 -9.40000 59.3000 TS 35 997 0 1008 125 45 -9.40000 59.3000 TC 35 3 257
2002307S07070 2003 87 SI MM ATANG 2002-11-06 15:00:00 TS -9.36002 59.1075 main 1081 1070 P___________P_ SH022003 -9.36002 59.1075 TS 40 994 0 1007 122 40 -9.36002 59.1075 TC 40 4 297
2002307S07070 2003 87 SI MM ATANG 2002-11-06 18:00:00 TS -9.20000 58.9000 main 1070 1065 O___________O_ jtwc_sh SH022003 -9.20000 58.9000 TS 45 991 0 70 70 45 45 1006 120 35 -9.20000 58.9000 TC 45 5 321
2002307S07070 2003 87 SI MM ATANG 2002-11-06 21:00:00 TS -8.94995 58.7650 main 1075 1065 P___________P_ SH022003 -8.94995 58.7650 TS 45 991 0 70 70 45 45 1006 120 35 -8.94995 58.7650 TC 45 6 329
2002307S07070 2003 87 SI MM ATANG 2002-11-07 00:00:00 TS -8.70000 58.6000 main 1065 1051 O___________O_ jtwc_sh SH022003 -8.70000 58.6000 TS 45 991 0 70 70 45 45 1006 120 35 -8.70000 58.6000 TC 45 6 313
2002307S07070 2003 87 SI MM ATANG 2002-11-07 03:00:00 TS -8.56248 58.3375 main 1041 1018 P___________P_ SH022003 -8.56248 58.3375 TS 40 994 0 70 70 45 45 1006 120 35 -8.56248 58.3375 TC 40 6 289
2002307S07070 2003 87 SI MM ATANG 2002-11-07 06:00:00 TS -8.50000 58.0000 main 1018 990 O___________O_ jtwc_sh SH022003 -8.50000 58.0000 TS 35 997 0 70 70 45 45 1006 120 35 -8.50000 58.0000 TC 35 7 276
2002307S07070 2003 87 SI MM ATANG 2002-11-07 09:00:00 TS -8.49242 57.6376 main 980 943 P___________P_ SH022003 -8.49242 57.6376 TS 35 997 0 70 70 45 45 1006 120 35 -8.49242 57.6376 TC 35 8 270
2002307S07070 2003 87 SI MM ATANG 2002-11-07 12:00:00 TS -8.50000 57.2000 main 943 897 O___________O_ jtwc_sh SH022003 -8.50000 57.2000 TS 35 997 0 70 70 45 45 1006 120 35 -8.50000 57.2000 TC 35 10 273
2002307S07070 2003 87 SI MM ATANG 2002-11-07 15:00:00 TS -8.45001 56.6724 main 897 847 P___________P_ SH022003 -8.45001 56.6724 TS 35 997 0 -8.45001 56.6724 TC 35 11 275
2002307S07070 2003 87 SI MM ATANG 2002-11-07 18:00:00 TS -8.40000 56.1000 main 847 801 O___________O_ jtwc_sh SH022003 -8.40000 56.1000 TS 35 997 0 -8.40000 56.1000 TC 35 11 273
2002307S07070 2003 87 SI MM ATANG 2002-11-07 21:00:00 TS -8.39245 55.5425 main 791 746 P___________P_ SH022003 -8.39245 55.5425 TS 32 998 -1 -8.39245 55.5425 TC 32 11 270
2002307S07070 2003 87 SI MM ATANG 2002-11-08 00:00:00 TS -8.40000 55.0000 main 746 702 O___________O_ jtwc_sh SH022003 -8.40000 55.0000 TD 30 1000 -1 -8.40000 55.0000 TC 30 11 270
2002307S07070 2003 87 SI MM ATANG 2002-11-08 03:00:00 TS -8.38496 54.4775 main 702 659 P___________P_ SH022003 -8.38496 54.4775 TD 27 1001 -1 -8.38496 54.4775 TC 27 10 270
2002307S07070 2003 87 SI MM ATANG 2002-11-08 06:00:00 TS -8.40000 54.0000 main 659 626 O___________O_ jtwc_sh SH022003 -8.40000 54.0000 TD 25 1002 -1 -8.40000 54.0000 TC 25 9 266
2002307S07070 2003 87 SI MM ATANG 2002-11-08 09:00:00 TS -8.45497 53.5625 main 618 579 P___________P_ SH022003 -8.45497 53.5625 TD 25 1002 -1 -8.45497 53.5625 TC 25 8 256
2002307S07070 2003 87 SI MM ATANG 2002-11-08 12:00:00 TS -8.60000 53.2000 main 579 532 O___________O_ jtwc_sh SH022003 -8.60000 53.2000 TD 25 1002 -1 -8.60000 53.2000 TC 25 8 237
2002307S07070 2003 87 SI MM ATANG 2002-11-08 15:00:00 TS -8.86993 52.9275 main 532 493 P___________P_ SH022003 -8.86993 52.9275 TD 25 1002 -1 -8.86993 52.9275 TC 25 8 219
2002307S07070 2003 87 SI MM ATANG 2002-11-08 18:00:00 TS -9.20000 52.7000 main 493 446 O___________O_ jtwc_sh SH022003 -9.20000 52.7000 TD 25 1003 -1 1008 120 15 -9.20000 52.7000 TC 25 8 218
2002307S07070 2003 87 SI MM ATANG 2002-11-08 21:00:00 TS -9.49252 52.4275 main 446 407 P___________P_ SH022003 -9.49252 52.4275 TD 27 1001 -1 1008 120 15 -9.49252 52.4275 TC 27 8 219
2002307S07070 2003 87 SI MM ATANG 2002-11-09 00:00:00 TS -9.80000 52.2000 main 407 377 O___________O_ jtwc_sh SH022003 -9.80000 52.2000 TD 30 1000 -1 1008 120 15 -9.80000 52.2000 TC 30 7 206
2002307S07070 2003 87 SI MM ATANG 2002-11-09 03:00:00 TS -10.1574 52.0999 main 370 341 P___________P_ SH022003 -10.1574 52.0999 TD 32 998 -1 1008 120 17 -10.1574 52.0999 TC 32 7 196
2002307S07070 2003 87 SI MM ATANG 2002-11-09 06:00:00 TS -10.5000 52.0000 main 341 305 O___________O_ jtwc_sh SH022003 -10.5000 52.0000 TS 35 997 0 1009 120 20 -10.5000 52.0000 TC 35 7 207
2002307S07070 2003 87 SI MM ATANG 2002-11-09 09:00:00 TS -10.7650 51.7800 main 305 265 P___________P_ SH022003 -10.7650 51.7800 TS 35 997 0 1009 120 20 -10.7650 51.7800 TC 35 7 225
2002307S07070 2003 87 SI MM ATANG 2002-11-09 12:00:00 TS -11.0000 51.5000 main 265 220 O___________O_ jtwc_sh SH022003 -11.0000 51.5000 TS 35 997 0 1009 120 20 -11.0000 51.5000 TC 35 7 227
2002307S07070 2003 87 SI MM ATANG 2002-11-09 15:00:00 TS -11.2724 51.2225 main 220 181 P___________P_ SH022003 -11.2724 51.2225 TS 35 999 0 1009 120 20 -11.2724 51.2225 TC 35 8 230
2002307S07070 2003 87 SI MM ATANG 2002-11-09 18:00:00 TS -11.5000 50.9000 main 181 132 O___________O_ jtwc_sh SH022003 -11.5000 50.9000 TS 35 1002 0 1009 120 20 -11.5000 50.9000 TC 35 8 242
2002307S07070 2003 87 SI MM ATANG 2002-11-09 21:00:00 TS -11.6601 50.4926 main 132 94 P___________P_ SH022003 -11.6601 50.4926 TS 35 999 0 1009 120 20 -11.6601 50.4926 TC 35 8 256
2002307S07070 2003 87 SI MM ATANG 2002-11-10 00:00:00 TS -11.7000 50.1000 main 94 78 O___________O_ jtwc_sh SH022003 -11.7000 50.1000 TS 35 997 0 1009 120 20 -11.7000 50.1000 TC 35 7 277
2002307S07070 2003 87 SI MM ATANG 2002-11-10 03:00:00 TS -11.5799 49.8349 main 78 78 P___________P_ SH022003 -11.5799 49.8349 TS 35 997 0 1009 120 20 -11.5799 49.8349 TC 35 6 302
2002307S07070 2003 87 SI MM ATANG 2002-11-10 06:00:00 TS -11.4000 49.6000 main 84 81 O___________O_ jtwc_sh SH022003 -11.4000 49.6000 TS 35 997 0 1009 120 20 -11.4000 49.6000 TC 35 6 302
2002307S07070 2003 87 SI MM ATANG 2002-11-10 09:00:00 TS -11.2774 49.3300 main 89 89 P___________P_ SH022003 -11.2774 49.3300 TS 30 999 -1 1009 120 20 -11.2774 49.3300 TC 30 6 289
2002307S07070 2003 87 SI MM ATANG 2002-11-10 12:00:00 TS -11.2000 49.0000 main 103 103 O___________O_ jtwc_sh SH022003 -11.2000 49.0000 TD 25 1002 -1 1009 120 20 -11.2000 49.0000 TC 25 7 277
2002307S07070 2003 87 SI MM ATANG 2002-11-10 15:00:00 TS -11.1849 48.5875 main 120 120 P___________P_ SH022003 -11.1849 48.5875 TD 22 1003 -1 -11.1849 48.5875 TC 22 9 270
2002307S07070 2003 87 SI MM ATANG 2002-11-10 18:00:00 TS -11.2000 48.1000 main 156 156 O___________O_ jtwc_sh SH022003 -11.2000 48.1000 TD 20 1004 -1 -11.2000 48.1000 TC 20 10 269
2002307S07070 2003 87 SI MM ATANG 2002-11-10 21:00:00 TS -11.1999 47.5725 main 195 195 P___________P_ SH022003 -11.1999 47.5725 TD 22 1003 -1 -11.1999 47.5725 TC 22 11 270
2002307S07070 2003 87 SI MM ATANG 2002-11-11 00:00:00 TS -11.2000 47.0000 main 244 244 O___________O_ jtwc_sh SH022003 -11.2000 47.0000 TD 25 1002 -1 -11.2000 47.0000 TC 25 12 271
2002307S07070 2003 87 SI MM ATANG 2002-11-11 03:00:00 TS -11.1700 46.3923 main 299 299 P___________P_ SH022003 -11.1700 46.3923 TD 27 1001 -1 -11.1700 46.3923 TC 27 12 270
2002307S07070 2003 87 SI MM ATANG 2002-11-11 06:00:00 TS -11.2000 45.8000 main 357 357 O___________O_ jtwc_sh SH022003 -11.2000 45.8000 TD 30 1000 -1 1009 120 20 -11.2000 45.8000 TC 30 11 259
2002307S07070 2003 87 SI MM ATANG 2002-11-11 09:00:00 TS -11.3848 45.2852 main 382 382 P___________P_ SH022003 -11.3848 45.2852 TD 32 998 -1 1009 120 20 -11.3848 45.2852 TC 32 11 248
2002307S07070 2003 87 SI MM ATANG 2002-11-11 12:00:00 TS -11.6000 44.8000 main 410 404 O___________O_ jtwc_sh SH022003 -11.6000 44.8000 TS 35 997 0 1009 120 20 -11.6000 44.8000 TC 35 10 249
2002307S07070 2003 87 SI MM ATANG 2002-11-11 15:00:00 TS -11.7524 44.3076 main 403 349 P___________P_ SH022003 -11.7524 44.3076 TS 35 997 0 1009 120 22 -11.7524 44.3076 TC 35 10 258
2002307S07070 2003 87 SI MM ATANG 2002-11-11 18:00:00 TS -11.8000 43.8000 main 349 295 O___________O_ jtwc_sh SH022003 -11.8000 43.8000 TS 35 997 0 1009 120 25 -11.8000 43.8000 TC 35 11 271
2002307S07070 2003 87 SI MM ATANG 2002-11-11 21:00:00 TS -11.7251 43.2274 main 285 235 P___________P_ SH022003 -11.7251 43.2274 TS 35 997 0 1009 120 25 -11.7251 43.2274 TC 35 11 286
2002307S07070 2003 87 SI MM ATANG 2002-11-12 00:00:00 TS -11.5000 42.7000 main 235 196 O___________O_ jtwc_sh SH022003 -11.5000 42.7000 TS 35 997 0 1009 120 25 -11.5000 42.7000 TC 35 11 305
2002307S07070 2003 87 SI MM ATANG 2002-11-12 03:00:00 TS -11.1148 42.3350 main 186 153 P___________P_ SH022003 -11.1148 42.3350 TS 32 998 -1 1009 120 25 -11.1148 42.3350 TC 32 11 319
2002307S07070 2003 87 SI MM ATANG 2002-11-12 06:00:00 TS -10.7000 42.0000 main 153 114 O___________O_ jtwc_sh SH022003 -10.7000 42.0000 TD 30 1000 -1 1009 120 25 -10.7000 42.0000 TC 30 11 313
2002307S07070 2003 87 SI MM ATANG 2002-11-12 09:00:00 TS -10.3900 41.5575 main 114 78 P___________P_ SH022003 -10.3900 41.5575 TD 30 1000 -1 1009 110 25 -10.3900 41.5575 TC 30 10 299
2002307S07070 2003 87 SI MM ATANG 2002-11-12 12:00:00 TS -10.2000 41.1000 main 78 46 O___________O_ jtwc_sh SH022003 -10.2000 41.1000 TD 30 1000 -1 1009 100 25 -10.2000 41.1000 TC 30 9 285
2002307S07070 2003 87 SI MM ATANG 2002-11-12 15:00:00 TS -10.1624 40.7002 main 46 15 P___________P_ SH022003 -10.1624 40.7002 TD 30 1000 -1 -10.1624 40.7002 TC 30 8 270
2002307S07070 2003 87 SI MM ATANG 2002-11-12 18:00:00 TS -10.2000 40.3000 main 15 0 O___________O_ jtwc_sh SH022003 -10.2000 40.3000 TD 30 1000 -1 -10.2000 40.3000 TC 30 8 267
2002307S07070 2003 87 SI MM ATANG 2002-11-12 21:00:00 TS -10.2127 39.8624 main 0 0 P___________P_ SH022003 -10.2127 39.8624 TD 27 1001 -1 -10.2127 39.8624 TC 27 9 270
2002307S07070 2003 87 SI MM ATANG 2002-11-13 00:00:00 TS -10.2000 39.4000 main 0 O___________O_ jtwc_sh SH022003 -10.2000 39.4000 TD 25 1002 -1 -10.2000 39.4000 TC 25 9 272

About IBTrACS Database

This database is a web-friendly format of International Best Track Archive for Climate Stewardship (IBTrACS), a global best track data archive curated by NOAA dating back to 1842.

Updated: 2021-12-03